地図

経路データ

SID SEASON NUMBER BASIN SUBBASIN NAME ISO_TIME NATURE LAT LON WMO_WIND WMO_PRES WMO_AGENCY TRACK_TYPE DIST2LAND LANDFALL IFLAG USA_AGENCY USA_ATCF_ID USA_LAT USA_LON USA_RECORD USA_STATUS USA_WIND USA_PRES USA_SSHS USA_R34_NE USA_R34_SE USA_R34_SW USA_R34_NW USA_R50_NE USA_R50_SE USA_R50_SW USA_R50_NW USA_R64_NE USA_R64_SE USA_R64_SW USA_R64_NW USA_POCI USA_ROCI USA_RMW USA_EYE TOKYO_LAT TOKYO_LON TOKYO_GRADE TOKYO_WIND TOKYO_PRES TOKYO_R50_DIR TOKYO_R50_LONG TOKYO_R50_SHORT TOKYO_R30_DIR TOKYO_R30_LONG TOKYO_R30_SHORT TOKYO_LAND CMA_LAT CMA_LON CMA_CAT CMA_WIND CMA_PRES HKO_LAT HKO_LON HKO_CAT HKO_WIND HKO_PRES NEWDELHI_LAT NEWDELHI_LON NEWDELHI_GRADE NEWDELHI_WIND NEWDELHI_PRES NEWDELHI_CI NEWDELHI_DP NEWDELHI_POCI REUNION_LAT REUNION_LON REUNION_TYPE REUNION_WIND REUNION_PRES REUNION_TNUM REUNION_CI REUNION_RMW REUNION_R34_NE REUNION_R34_SE REUNION_R34_SW REUNION_R34_NW REUNION_R50_NE REUNION_R50_SE REUNION_R50_SW REUNION_R50_NW REUNION_R64_NE REUNION_R64_SE REUNION_R64_SW REUNION_R64_NW BOM_LAT BOM_LON BOM_TYPE BOM_WIND BOM_PRES BOM_TNUM BOM_CI BOM_RMW BOM_R34_NE BOM_R34_SE BOM_R34_SW BOM_R34_NW BOM_R50_NE BOM_R50_SE BOM_R50_SW BOM_R50_NW BOM_R64_NE BOM_R64_SE BOM_R64_SW BOM_R64_NW BOM_ROCI BOM_POCI BOM_EYE BOM_POS_METHOD BOM_PRES_METHOD NADI_LAT NADI_LON NADI_CAT NADI_WIND NADI_PRES WELLINGTON_LAT WELLINGTON_LON WELLINGTON_WIND WELLINGTON_PRES DS824_LAT DS824_LON DS824_STAGE DS824_WIND DS824_PRES TD9636_LAT TD9636_LON TD9636_STAGE TD9636_WIND TD9636_PRES TD9635_LAT TD9635_LON TD9635_WIND TD9635_PRES TD9635_ROCI NEUMANN_LAT NEUMANN_LON NEUMANN_CLASS NEUMANN_WIND NEUMANN_PRES MLC_LAT MLC_LON MLC_CLASS MLC_WIND MLC_PRES USA_GUST BOM_GUST BOM_GUST_PER REUNION_GUST REUNION_GUST_PER USA_SEAHGT USA_SEARAD_NE USA_SEARAD_SE USA_SEARAD_SW USA_SEARAD_NW STORM_SPEED STORM_DIR
1947362S15120 1948 102 SI WA NOT_NAMED 1947-12-27 23:00:00 NR -15.1000 120.000 main 332 324 __________O___ -1 -15.1000 120.000 7 7 188
1947362S15120 1948 102 SI WA NOT_NAMED 1947-12-28 00:00:00 TS -15.2108 119.988 main 324 319 O________OP___ jtwc_sh SH011948 -15.2000 120.000 -1 -15.2000 120.000 TC -15.2217 119.976 7 11 205
1947362S15120 1948 102 SI WA NOT_NAMED 1947-12-28 01:00:00 TS -15.4237 119.839 980 bom main 327 309 P_____O__PP___ SH011948 -15.3398 119.965 -1 -16.0000 119.000 980 -15.3398 119.965 TC -15.3435 119.952 7 11 204
1947362S15120 1948 102 SI WA NOT_NAMED 1947-12-28 03:00:00 TS -15.7165 119.748 main 318 298 P_____P__PP___ SH011948 -15.6150 119.895 -1 -16.2779 119.002 -15.6150 119.895 TC -15.5881 119.900 7 9 195
1947362S15120 1948 102 SI WA NOT_NAMED 1947-12-28 06:00:00 TS -16.1279 119.643 main 307 294 O_____P__OP___ jtwc_sh SH011948 -16.0000 119.800 -1 -16.6936 119.004 -16.0000 119.800 TC -15.9595 119.810 7 8 194
1947362S15120 1948 102 SI WA NOT_NAMED 1947-12-28 09:00:00 TS -16.5329 119.533 main 300 290 P_____P__PP___ SH011948 -16.3425 119.715 -1 -17.1068 119.006 -16.3425 119.715 TC -16.3398 119.695 7 8 194
1947362S15120 1948 102 SI WA NOT_NAMED 1947-12-28 11:00:00 TS -16.7823 119.474 main 290 287 P_____P__PO___ SH011948 -16.5745 119.645 -1 -17.3800 119.007 -16.5745 119.645 TC -16.6000 119.600 7 8 193
1947362S15120 1948 102 SI WA NOT_NAMED 1947-12-28 12:00:00 TS -16.9121 119.438 main 297 289 O_____P__OP___ jtwc_sh SH011948 -16.7000 119.600 -1 -17.5157 119.007 -16.7000 119.600 TC -16.7325 119.546 7 9 197
1947362S15120 1948 102 SI WA NOT_NAMED 1947-12-28 15:00:00 TS -17.3388 119.297 main 292 264 P_____P__PP___ SH011948 -17.1500 119.408 -1 -17.9188 119.008 -17.1500 119.408 TC -17.1364 119.364 7 9 198
1947362S15120 1948 102 SI WA NOT_NAMED 1947-12-28 18:00:00 TS -17.7643 119.145 main 256 223 O_____P__OP___ jtwc_sh SH011948 -17.6000 119.200 -1 -18.3145 119.007 -17.6000 119.200 TC -17.5428 119.172 7 9 198
1947362S15120 1948 102 SI WA NOT_NAMED 1947-12-28 21:00:00 TS -18.1433 119.018 main 223 190 P_____P__PP___ SH011948 -17.9650 119.035 -1 -18.7011 119.005 -17.9650 119.035 TC -17.9422 118.996 7 8 197
1947362S15120 1948 102 SI WA NOT_NAMED 1947-12-28 23:00:00 TS -18.3826 118.947 main 191 180 P_____P__PO___ SH011948 -18.1886 118.942 -1 -18.9531 119.003 -18.1886 118.942 TC -18.2000 118.900 7 8 192
1947362S15120 1948 102 SI WA NOT_NAMED 1947-12-29 00:00:00 TS -18.5354 118.921 main 180 158 O_____P__OP___ jtwc_sh SH011948 -18.3000 118.900 -1 -19.0772 119.002 -18.3000 118.900 TC -18.3233 118.862 7 9 188
1947362S15120 1948 102 SI WA NOT_NAMED 1947-12-29 01:00:00 TS -18.6861 118.897 960 bom main 158 135 P_____O__PP___ SH011948 -18.4167 118.856 -1 -19.2000 119.000 960 -18.4167 118.856 TC -18.4447 118.827 7 8 187
1947362S15120 1948 102 SI WA NOT_NAMED 1947-12-29 03:00:00 TS -18.9506 118.857 main 124 94 P_____P__PP___ SH011948 -18.6500 118.778 -1 -19.4411 118.997 960 -18.6500 118.778 TC -18.6823 118.772 7 8 186
1947362S15120 1948 102 SI WA NOT_NAMED 1947-12-29 06:00:00 TS -19.3237 118.823 main 94 84 O_____P__OP___ jtwc_sh SH011948 -19.0000 118.700 -1 -19.7887 118.997 960 -19.0000 118.700 TC -19.0298 118.718 7 7 183
1947362S15120 1948 102 SI WA NOT_NAMED 1947-12-29 07:00:00 TS -19.4375 118.818 960 bom main 84 64 P_____O__PP___ SH011948 -19.1167 118.689 -1 -19.9000 119.000 960 4 -19.1167 118.689 TC -19.1441 118.708 7 7 0
1947362S15120 1948 102 SI WA NOT_NAMED 1947-12-29 09:00:00 TS -19.6625 118.817 main 54 38 P_____P__PP___ SH011948 -19.3500 118.685 -1 -20.1177 119.004 -19.3500 118.685 TC -19.3719 118.697 7 7 0
1947362S15120 1948 102 SI WA NOT_NAMED 1947-12-29 11:00:00 TS -19.8839 118.827 main 38 30 P_____P__PO___ SH011948 -19.5833 118.695 -1 -20.3259 119.012 -19.5833 118.695 TC -19.6000 118.700 7 7 0
1947362S15120 1948 102 SI WA NOT_NAMED 1947-12-29 12:00:00 TS -19.9945 118.831 main 30 10 O_____P__OP___ jtwc_sh SH011948 -19.7000 118.700 -1 -20.4267 119.018 -19.7000 118.700 TC -19.7203 118.691 7 7 178
1947362S15120 1948 102 SI WA NOT_NAMED 1947-12-29 15:00:00 TS -20.3223 118.834 main 10 0 P_____P__PP___ SH011948 -20.0500 118.678 -1 -20.7177 119.045 -20.0500 118.678 TC -20.0827 118.681 7 7 177
1947362S15120 1948 102 SI WA NOT_NAMED 1947-12-29 18:00:00 TS -20.6435 118.870 main 0 0 O_____P__OP___ jtwc_sh SH011948 -20.4000 118.700 -1 -20.9939 119.091 -20.4000 118.700 TC -20.4402 118.711 7 7 170
1947362S15120 1948 102 SI WA NOT_NAMED 1947-12-29 21:00:00 TS -20.9605 118.960 main 0 0 P_____P__PP___ SH011948 -20.7575 118.812 -1 -21.2588 119.161 -20.7575 118.812 TC -20.7835 118.799 7 7 162
1947362S15120 1948 102 SI WA NOT_NAMED 1947-12-29 23:00:00 TS -21.1649 119.051 main 0 0 P_____P__PO___ SH011948 -20.9890 118.931 -1 -21.4307 119.224 -20.9890 118.931 TC -21.0000 118.900 7 7 157
1947362S15120 1948 102 SI WA NOT_NAMED 1947-12-30 00:00:00 TS -21.2652 119.104 main 0 0 O_____P__OP___ jtwc_sh SH011948 -21.1000 119.000 -1 -21.5156 119.260 -21.1000 119.000 TC -21.1103 118.958 7 7 153
1947362S15120 1948 102 SI WA NOT_NAMED 1947-12-30 01:00:00 TS -21.3648 119.156 980 bom main 0 0 P_____O__PP___ SH011948 -21.2083 119.067 -1 -21.6000 119.300 980 -21.2083 119.067 TC -21.2187 119.024 7 7 152
1947362S15120 1948 102 SI WA NOT_NAMED 1947-12-30 03:00:00 TS -21.5589 119.276 main 0 0 P_____P__PP___ SH011948 -21.4149 119.220 -1 -21.7757 119.380 981 -21.4149 119.220 TC -21.4281 119.182 7 7 145
1947362S15120 1948 102 SI WA NOT_NAMED 1947-12-30 06:00:00 TS -21.8281 119.503 main 0 0 O_____P__OP___ jtwc_sh SH011948 -21.7000 119.500 -1 -22.0236 119.536 984 -21.7000 119.500 TC -21.7169 119.478 7 7 141
1947362S15120 1948 102 SI WA NOT_NAMED 1947-12-30 07:00:00 TS -21.9142 119.590 985 bom main 0 0 P_____O__PP___ SH011948 -21.7969 119.600 -1 -22.1000 119.600 985 -21.7969 119.600 TC -21.8045 119.590 7 7 133
1947362S15120 1948 102 SI WA NOT_NAMED 1947-12-30 09:00:00 TS -22.0743 119.785 main 0 0 P_____P__PP___ SH011948 -21.9799 119.820 -1 -22.2412 119.749 -21.9799 119.820 TC -21.9642 119.834 7 7 128
1947362S15120 1948 102 SI WA NOT_NAMED 1947-12-30 11:00:00 TS -22.2136 120.007 main 0 0 P_____P__PO___ SH011948 -22.1364 120.067 -1 -22.3682 119.924 -22.1364 120.067 TC -22.1000 120.100 7 7 124
1947362S15120 1948 102 SI WA NOT_NAMED 1947-12-30 12:00:00 TS -22.2817 120.119 main 0 0 O_____P__OP___ jtwc_sh SH011948 -22.2000 120.200 -1 -22.4268 120.020 -22.2000 120.200 TC -22.1580 120.241 7 8 116
1947362S15120 1948 102 SI WA NOT_NAMED 1947-12-30 15:00:00 TS -22.4361 120.492 main 0 0 P_____P__PP___ SH011948 -22.3278 120.635 -1 -22.5860 120.338 -22.3278 120.635 TC -22.2961 120.689 7 7 114
1947362S15120 1948 102 SI WA NOT_NAMED 1947-12-30 18:00:00 TS -22.5803 120.860 main 0 0 O_____P__OP___ jtwc_sh SH011948 -22.4000 121.100 -1 -22.7245 120.692 -22.4000 121.100 TC -22.3922 121.167 7 7 115
1947362S15120 1948 102 SI WA NOT_NAMED 1947-12-30 21:00:00 TS -22.7419 121.207 main 0 0 ______P___P___ SH011948 -1 -22.8481 121.072 TC -22.4614 121.664 7 7 115
1947362S15120 1948 102 SI WA NOT_NAMED 1947-12-30 23:00:00 TS -22.8335 121.454 main 0 0 ______P___O___ SH011948 -1 -22.9252 121.334 TC -22.5000 122.000 7 6 128
1947362S15120 1948 102 SI WA NOT_NAMED 1947-12-31 00:00:00 TS -22.9418 121.478 main 0 0 ______P_______ -1 -22.9628 121.467 7 6 140
1947362S15120 1948 102 SI WA NOT_NAMED 1947-12-31 01:00:00 NR -23.0000 121.600 998 bom main 0 ______O_______ -1 -23.0000 121.600 998 7 8 118

IBTrACS Databaseについて

本データベースは、米国NOAAが公開する1842年以降の世界の熱帯低気圧のベストトラックデータアーカイブInternational Best Track Archive for Climate Stewardship (IBTrACS)を、ウェブで閲覧しやすい形式に変換したものです。

最終更新日:2021-10-08